<?xml version="1.0" encoding="utf-8"?>
<gpx xmlns:xsi="http://www.w3.org/2001/XMLSchema-instance" xmlns:xsd="http://www.w3.org/2001/XMLSchema" version="1.1" creator="Shapelink.com" xmlns="http://www.topografix.com/GPX/1/1" xmlns:gpxtpx="http://www.garmin.com/xmlschemas/TrackPointExtension/v1">
  <metadata>
    <name>Övrigt 1.70 km, 2020-08-01</name>
    <desc></desc>
    <author><name>Marian Moron</name></author> 
    <time>2020-08-01T20:14:20Z</time>
  </metadata>
  <trk>
    <name>Övrigt 1.70 km, 2020-08-01</name>
    <trkseg>
      <trkpt lat="51.229757225398" lon="4.457866073446">
        <ele>82.4</ele>
        <time>2020-08-01T20:14:20Z</time>
      </trkpt>
      <trkpt lat="51.229976747359" lon="4.458464624925">
        <ele>16.2</ele>
        <time>2020-08-01T20:14:51Z</time>
      </trkpt>
      <trkpt lat="51.229989320209" lon="4.45856814139">
        <ele>16.2</ele>
        <time>2020-08-01T20:14:59Z</time>
      </trkpt>
      <trkpt lat="51.23001689666" lon="4.458749525706">
        <ele>15</ele>
        <time>2020-08-01T20:15:15Z</time>
      </trkpt>
      <trkpt lat="51.23035049628" lon="4.458743742195">
        <ele>12</ele>
        <time>2020-08-01T20:15:37Z</time>
      </trkpt>
      <trkpt lat="51.230677055104" lon="4.458649864915">
        <ele>5</ele>
        <time>2020-08-01T20:16:06Z</time>
      </trkpt>
      <trkpt lat="51.231014426579" lon="4.458532266858">
        <ele>2.8</ele>
        <time>2020-08-01T20:17:05Z</time>
      </trkpt>
      <trkpt lat="51.231240151146" lon="4.458196404125">
        <ele>2.2</ele>
        <time>2020-08-01T20:19:05Z</time>
      </trkpt>
      <trkpt lat="51.231245264105" lon="4.458056594033">
        <ele>2</ele>
        <time>2020-08-01T20:19:17Z</time>
      </trkpt>
      <trkpt lat="51.231234451454" lon="4.458013678705">
        <ele>2</ele>
        <time>2020-08-01T20:19:20Z</time>
      </trkpt>
      <trkpt lat="51.231183740959" lon="4.457652670272">
        <ele>1</ele>
        <time>2020-08-01T20:20:28Z</time>
      </trkpt>
      <trkpt lat="51.231131940817" lon="4.457580083018">
        <ele>0.4</ele>
        <time>2020-08-01T20:21:10Z</time>
      </trkpt>
      <trkpt lat="51.23118617171" lon="4.4573016363">
        <ele>0</ele>
        <time>2020-08-01T20:21:30Z</time>
      </trkpt>
      <trkpt lat="51.23127753442" lon="4.456850773899">
        <ele>0</ele>
        <time>2020-08-01T20:21:56Z</time>
      </trkpt>
      <trkpt lat="51.231149710445" lon="4.456446598681">
        <ele>1.4</ele>
        <time>2020-08-01T20:22:34Z</time>
      </trkpt>
      <trkpt lat="51.230740925182" lon="4.456319026163">
        <ele>17.2</ele>
        <time>2020-08-01T20:23:12Z</time>
      </trkpt>
      <trkpt lat="51.230661129494" lon="4.456326653692">
        <ele>15.6</ele>
        <time>2020-08-01T20:23:20Z</time>
      </trkpt>
      <trkpt lat="51.230304898744" lon="4.456486831801">
        <ele>11.4</ele>
        <time>2020-08-01T20:23:59Z</time>
      </trkpt>
      <trkpt lat="51.229857221465" lon="4.456576266674">
        <ele>6.2</ele>
        <time>2020-08-01T20:24:38Z</time>
      </trkpt>
      <trkpt lat="51.22949051334" lon="4.456640639666">
        <ele>6.4</ele>
        <time>2020-08-01T20:25:14Z</time>
      </trkpt>
      <trkpt lat="51.229468301305" lon="4.456737953525">
        <ele>8.2</ele>
        <time>2020-08-01T20:26:05Z</time>
      </trkpt>
      <trkpt lat="51.229087846864" lon="4.456934844356">
        <ele>12</ele>
        <time>2020-08-01T20:26:43Z</time>
      </trkpt>
      <trkpt lat="51.228639247576" lon="4.457054789345">
        <ele>12.2</ele>
        <time>2020-08-01T20:27:23Z</time>
      </trkpt>
      <trkpt lat="51.228456019242" lon="4.457283363758">
        <ele>8.4</ele>
        <time>2020-08-01T20:28:11Z</time>
      </trkpt>
      <trkpt lat="51.228267091216" lon="4.457391657906">
        <ele>3.8</ele>
        <time>2020-08-01T20:28:31Z</time>
      </trkpt>
      <trkpt lat="51.228085203986" lon="4.457410181905">
        <ele>3.2</ele>
        <time>2020-08-01T20:28:49Z</time>
      </trkpt>
      <trkpt lat="51.227888648431" lon="4.457480086951">
        <ele>8.6</ele>
        <time>2020-08-01T20:29:09Z</time>
      </trkpt>
      <trkpt lat="51.22776300375" lon="4.457603803795">
        <ele>6.6</ele>
        <time>2020-08-01T20:29:27Z</time>
      </trkpt>
      <trkpt lat="51.227606765134" lon="4.457602797967">
        <ele>12.4</ele>
        <time>2020-08-01T20:29:48Z</time>
      </trkpt>
      <trkpt lat="51.227443318084" lon="4.457750151769">
        <ele>8</ele>
        <time>2020-08-01T20:30:08Z</time>
      </trkpt>
      <trkpt lat="51.227331168262" lon="4.457901109788">
        <ele>6.6</ele>
        <time>2020-08-01T20:30:31Z</time>
      </trkpt>
      <trkpt lat="51.226870415219" lon="4.458052235445">
        <ele>9.6</ele>
        <time>2020-08-01T20:31:12Z</time>
      </trkpt>
      <trkpt lat="51.22646213287" lon="4.458328586688">
        <ele>12.6</ele>
        <time>2020-08-01T20:31:53Z</time>
      </trkpt>
      <trkpt lat="51.226016551066" lon="4.458530925754">
        <ele>16</ele>
        <time>2020-08-01T20:32:28Z</time>
      </trkpt>
      <trkpt lat="51.226019903826" lon="4.458822364417">
        <ele>11</ele>
        <time>2020-08-01T20:32:47Z</time>
      </trkpt>
      <trkpt lat="51.22604722882" lon="4.459287895143">
        <ele>18</ele>
        <time>2020-08-01T20:33:56Z</time>
      </trkpt>
      <trkpt lat="51.2263590355" lon="4.45959576233">
        <ele>10.2</ele>
        <time>2020-08-01T20:34:44Z</time>
      </trkpt>
      <trkpt lat="51.226442603043" lon="4.4594976941">
        <ele>6.2</ele>
        <time>2020-08-01T20:34:52Z</time>
      </trkpt>
      <trkpt lat="51.226858261464" lon="4.459243051978">
        <ele>0</ele>
        <time>2020-08-01T20:35:36Z</time>
      </trkpt>
      <trkpt lat="51.226976949168" lon="4.459150264345">
        <ele>0</ele>
        <time>2020-08-01T20:35:50Z</time>
      </trkpt>
      <trkpt lat="51.227131259947" lon="4.45899980924">
        <ele>0</ele>
        <time>2020-08-01T20:36:27Z</time>
      </trkpt>
      <trkpt lat="51.22751238494" lon="4.458809623929">
        <ele>2.4</ele>
        <time>2020-08-01T20:37:03Z</time>
      </trkpt>
      <trkpt lat="51.227935419433" lon="4.45856227406">
        <ele>0</ele>
        <time>2020-08-01T20:37:47Z</time>
      </trkpt>
      <trkpt lat="51.228354346795" lon="4.458281731867">
        <ele>0.4</ele>
        <time>2020-08-01T20:38:30Z</time>
      </trkpt>
      <trkpt lat="51.228560206259" lon="4.458176371384">
        <ele>3.8</ele>
        <time>2020-08-01T20:38:53Z</time>
      </trkpt>
      <trkpt lat="51.228504298986" lon="4.457484277901">
        <ele>5</ele>
        <time>2020-08-01T20:39:36Z</time>
      </trkpt>
      <trkpt lat="51.228453923767" lon="4.457333571339">
        <ele>1.2</ele>
        <time>2020-08-01T20:39:54Z</time>
      </trkpt>
      <trkpt lat="51.228549393608" lon="4.457325273258">
        <ele>0</ele>
        <time>2020-08-01T20:40:03Z</time>
      </trkpt>
      <trkpt lat="51.228560709173" lon="4.457415043407">
        <ele>0</ele>
        <time>2020-08-01T20:40:10Z</time>
      </trkpt>
      <trkpt lat="51.228594739687" lon="4.458119961197">
        <ele>4.8</ele>
        <time>2020-08-01T20:40:54Z</time>
      </trkpt>
      <trkpt lat="51.228711751011" lon="4.458263710782">
        <ele>7.6</ele>
        <time>2020-08-01T20:41:44Z</time>
      </trkpt>
      <trkpt lat="51.228732873399" lon="4.458259855108">
        <ele>8.6</ele>
        <time>2020-08-01T20:41:46Z</time>
      </trkpt>
      <trkpt lat="51.22918122123" lon="4.458135551531">
        <ele>4.2</ele>
        <time>2020-08-01T20:42:30Z</time>
      </trkpt>
      <trkpt lat="51.229615319831" lon="4.457918125045">
        <ele>4</ele>
        <time>2020-08-01T20:43:13Z</time>
      </trkpt>
      <trkpt lat="51.229626467758" lon="4.457915610475">
        <ele>3.8</ele>
        <time>2020-08-01T20:43:14Z</time>
      </trkpt>
      <trkpt lat="51.229729648947" lon="4.457976127793">
        <ele>0</ele>
        <time>2020-08-01T20:43:48Z</time>
      </trkpt>
    </trkseg>
  </trk>
</gpx>